sensor_id;sensor_type;location;lat;lon;timestamp;P1;durP1;ratioP1;P2;durP2;ratioP2
73168;SDS011;61379;59.732;30.468;2023-05-07T00:02:20;8.52;;;7.05;;
73168;SDS011;61379;59.732;30.468;2023-05-07T00:04:46;6.97;;;6.28;;
73168;SDS011;61379;59.732;30.468;2023-05-07T00:07:13;6.80;;;6.20;;
73168;SDS011;61379;59.732;30.468;2023-05-07T00:09:40;6.53;;;5.88;;
73168;SDS011;61379;59.732;30.468;2023-05-07T00:12:07;6.55;;;5.95;;
73168;SDS011;61379;59.732;30.468;2023-05-07T00:14:34;6.22;;;5.63;;
73168;SDS011;61379;59.732;30.468;2023-05-07T00:17:02;7.60;;;6.65;;
73168;SDS011;61379;59.732;30.468;2023-05-07T00:19:28;7.75;;;6.32;;
73168;SDS011;61379;59.732;30.468;2023-05-07T00:21:55;7.90;;;6.05;;
73168;SDS011;61379;59.732;30.468;2023-05-07T00:24:22;9.40;;;7.05;;
73168;SDS011;61379;59.732;30.468;2023-05-07T00:26:49;8.48;;;6.72;;
73168;SDS011;61379;59.732;30.468;2023-05-07T00:29:15;9.63;;;8.63;;
73168;SDS011;61379;59.732;30.468;2023-05-07T00:31:42;12.07;;;9.25;;
73168;SDS011;61379;59.732;30.468;2023-05-07T00:34:10;7.10;;;6.43;;
73168;SDS011;61379;59.732;30.468;2023-05-07T00:36:37;12.63;;;9.65;;
73168;SDS011;61379;59.732;30.468;2023-05-07T00:39:04;14.15;;;10.02;;
73168;SDS011;61379;59.732;30.468;2023-05-07T00:41:31;18.27;;;11.20;;
73168;SDS011;61379;59.732;30.468;2023-05-07T00:43:57;20.48;;;11.48;;
73168;SDS011;61379;59.732;30.468;2023-05-07T00:46:24;19.85;;;11.93;;
73168;SDS011;61379;59.732;30.468;2023-05-07T00:48:51;21.27;;;12.48;;
73168;SDS011;61379;59.732;30.468;2023-05-07T00:51:19;15.05;;;8.88;;
73168;SDS011;61379;59.732;30.468;2023-05-07T00:53:46;18.63;;;10.93;;
73168;SDS011;61379;59.732;30.468;2023-05-07T00:56:13;14.02;;;9.30;;
73168;SDS011;61379;59.732;30.468;2023-05-07T00:58:40;14.02;;;8.38;;
73168;SDS011;61379;59.732;30.468;2023-05-07T01:01:08;11.10;;;7.97;;
73168;SDS011;61379;59.732;30.468;2023-05-07T01:03:34;10.88;;;7.95;;
73168;SDS011;61379;59.732;30.468;2023-05-07T01:06:01;10.70;;;7.97;;
73168;SDS011;61379;59.732;30.468;2023-05-07T01:08:30;9.50;;;7.28;;
73168;SDS011;61379;59.732;30.468;2023-05-07T01:10:57;9.32;;;8.15;;
73168;SDS011;61379;59.732;30.468;2023-05-07T01:13:24;9.95;;;8.60;;
73168;SDS011;61379;59.732;30.468;2023-05-07T01:15:51;9.40;;;7.47;;
73168;SDS011;61379;59.732;30.468;2023-05-07T01:18:18;8.15;;;6.95;;
73168;SDS011;61379;59.732;30.468;2023-05-07T01:20:44;9.82;;;7.80;;
73168;SDS011;61379;59.732;30.468;2023-05-07T01:23:13;8.93;;;7.15;;
73168;SDS011;61379;59.732;30.468;2023-05-07T01:25:39;8.50;;;6.90;;
73168;SDS011;61379;59.732;30.468;2023-05-07T01:28:06;16.25;;;11.50;;
73168;SDS011;61379;59.732;30.468;2023-05-07T01:30:33;17.30;;;10.77;;
73168;SDS011;61379;59.732;30.468;2023-05-07T01:33:01;15.98;;;10.38;;
73168;SDS011;61379;59.732;30.468;2023-05-07T01:35:30;12.55;;;9.82;;
73168;SDS011;61379;59.732;30.468;2023-05-07T01:37:58;14.35;;;10.10;;
73168;SDS011;61379;59.732;30.468;2023-05-07T01:40:27;17.48;;;10.05;;
73168;SDS011;61379;59.732;30.468;2023-05-07T01:42:54;19.75;;;10.75;;
73168;SDS011;61379;59.732;30.468;2023-05-07T01:45:21;13.68;;;8.80;;
73168;SDS011;61379;59.732;30.468;2023-05-07T01:47:48;17.50;;;10.15;;
73168;SDS011;61379;59.732;30.468;2023-05-07T01:50:15;19.10;;;11.25;;
73168;SDS011;61379;59.732;30.468;2023-05-07T01:52:43;15.40;;;10.35;;
73168;SDS011;61379;59.732;30.468;2023-05-07T01:55:10;16.13;;;10.55;;
73168;SDS011;61379;59.732;30.468;2023-05-07T01:57:39;21.77;;;14.27;;
73168;SDS011;61379;59.732;30.468;2023-05-07T02:00:06;17.20;;;10.80;;
73168;SDS011;61379;59.732;30.468;2023-05-07T02:02:34;14.85;;;9.88;;
73168;SDS011;61379;59.732;30.468;2023-05-07T02:05:01;16.02;;;10.70;;
73168;SDS011;61379;59.732;30.468;2023-05-07T02:07:29;13.52;;;8.55;;
73168;SDS011;61379;59.732;30.468;2023-05-07T02:09:56;12.48;;;9.43;;
73168;SDS011;61379;59.732;30.468;2023-05-07T02:12:23;16.83;;;10.73;;
73168;SDS011;61379;59.732;30.468;2023-05-07T02:14:51;17.98;;;11.30;;
73168;SDS011;61379;59.732;30.468;2023-05-07T02:17:18;11.13;;;9.38;;
73168;SDS011;61379;59.732;30.468;2023-05-07T02:19:45;11.77;;;9.77;;
73168;SDS011;61379;59.732;30.468;2023-05-07T02:22:12;9.30;;;8.32;;
73168;SDS011;61379;59.732;30.468;2023-05-07T02:24:38;8.68;;;7.97;;
73168;SDS011;61379;59.732;30.468;2023-05-07T02:27:05;7.82;;;7.05;;
73168;SDS011;61379;59.732;30.468;2023-05-07T02:29:32;9.95;;;9.00;;
73168;SDS011;61379;59.732;30.468;2023-05-07T02:32:00;8.50;;;7.70;;
73168;SDS011;61379;59.732;30.468;2023-05-07T02:34:27;8.98;;;8.18;;
73168;SDS011;61379;59.732;30.468;2023-05-07T02:36:54;9.02;;;8.23;;
73168;SDS011;61379;59.732;30.468;2023-05-07T02:39:21;9.48;;;8.50;;
73168;SDS011;61379;59.732;30.468;2023-05-07T02:41:47;9.32;;;8.52;;
73168;SDS011;61379;59.732;30.468;2023-05-07T02:44:14;8.13;;;7.43;;
73168;SDS011;61379;59.732;30.468;2023-05-07T02:46:41;9.02;;;8.23;;
73168;SDS011;61379;59.732;30.468;2023-05-07T02:49:09;8.70;;;7.95;;
73168;SDS011;61379;59.732;30.468;2023-05-07T02:51:36;7.68;;;7.05;;
73168;SDS011;61379;59.732;30.468;2023-05-07T02:54:02;8.88;;;7.97;;
73168;SDS011;61379;59.732;30.468;2023-05-07T02:56:29;7.80;;;7.13;;
73168;SDS011;61379;59.732;30.468;2023-05-07T02:58:56;7.72;;;7.13;;
73168;SDS011;61379;59.732;30.468;2023-05-07T03:01:23;8.15;;;7.40;;
73168;SDS011;61379;59.732;30.468;2023-05-07T03:03:50;7.03;;;6.53;;
73168;SDS011;61379;59.732;30.468;2023-05-07T03:06:18;7.47;;;6.93;;
73168;SDS011;61379;59.732;30.468;2023-05-07T03:08:45;7.28;;;6.70;;
73168;SDS011;61379;59.732;30.468;2023-05-07T03:11:12;8.10;;;7.38;;
73168;SDS011;61379;59.732;30.468;2023-05-07T03:13:38;7.40;;;6.70;;
73168;SDS011;61379;59.732;30.468;2023-05-07T03:16:05;7.63;;;6.90;;
73168;SDS011;61379;59.732;30.468;2023-05-07T03:18:32;7.63;;;7.07;;
73168;SDS011;61379;59.732;30.468;2023-05-07T03:20:59;6.35;;;5.85;;
73168;SDS011;61379;59.732;30.468;2023-05-07T03:23:27;7.30;;;6.80;;
73168;SDS011;61379;59.732;30.468;2023-05-07T03:25:54;7.80;;;7.03;;
73168;SDS011;61379;59.732;30.468;2023-05-07T03:28:20;7.00;;;6.47;;
73168;SDS011;61379;59.732;30.468;2023-05-07T03:30:47;6.90;;;6.38;;
73168;SDS011;61379;59.732;30.468;2023-05-07T03:33:14;7.18;;;6.57;;
73168;SDS011;61379;59.732;30.468;2023-05-07T03:35:41;7.00;;;6.47;;
73168;SDS011;61379;59.732;30.468;2023-05-07T03:38:08;10.75;;;7.65;;
73168;SDS011;61379;59.732;30.468;2023-05-07T03:40:36;28.88;;;16.15;;
73168;SDS011;61379;59.732;30.468;2023-05-07T03:43:03;8.32;;;7.47;;
73168;SDS011;61379;59.732;30.468;2023-05-07T03:45:29;6.97;;;6.38;;
73168;SDS011;61379;59.732;30.468;2023-05-07T03:47:56;6.63;;;6.10;;
73168;SDS011;61379;59.732;30.468;2023-05-07T03:50:23;6.93;;;6.32;;
73168;SDS011;61379;59.732;30.468;2023-05-07T03:52:50;6.55;;;5.95;;
73168;SDS011;61379;59.732;30.468;2023-05-07T03:55:16;7.38;;;6.68;;
73168;SDS011;61379;59.732;30.468;2023-05-07T03:57:45;7.60;;;6.40;;
73168;SDS011;61379;59.732;30.468;2023-05-07T04:00:12;7.10;;;6.50;;
73168;SDS011;61379;59.732;30.468;2023-05-07T04:02:39;8.00;;;7.20;;
73168;SDS011;61379;59.732;30.468;2023-05-07T04:05:06;7.72;;;6.65;;
73168;SDS011;61379;59.732;30.468;2023-05-07T04:07:33;8.18;;;7.40;;
73168;SDS011;61379;59.732;30.468;2023-05-07T04:09:59;7.90;;;7.05;;
73168;SDS011;61379;59.732;30.468;2023-05-07T04:12:26;7.85;;;7.10;;
73168;SDS011;61379;59.732;30.468;2023-05-07T04:14:54;7.25;;;5.57;;
73168;SDS011;61379;59.732;30.468;2023-05-07T04:17:21;11.63;;;6.65;;
73168;SDS011;61379;59.732;30.468;2023-05-07T04:19:48;14.90;;;8.63;;
73168;SDS011;61379;59.732;30.468;2023-05-07T04:22:15;11.20;;;7.63;;
73168;SDS011;61379;59.732;30.468;2023-05-07T04:24:41;16.60;;;9.15;;
73168;SDS011;61379;59.732;30.468;2023-05-07T04:27:08;15.75;;;9.02;;
73168;SDS011;61379;59.732;30.468;2023-05-07T04:29:35;17.55;;;9.75;;
73168;SDS011;61379;59.732;30.468;2023-05-07T04:32:03;9.75;;;7.75;;
73168;SDS011;61379;59.732;30.468;2023-05-07T04:34:30;8.32;;;7.32;;
73168;SDS011;61379;59.732;30.468;2023-05-07T04:36:58;11.32;;;6.25;;
73168;SDS011;61379;59.732;30.468;2023-05-07T04:39:25;6.40;;;5.80;;
73168;SDS011;61379;59.732;30.468;2023-05-07T04:41:52;7.35;;;5.88;;
73168;SDS011;61379;59.732;30.468;2023-05-07T04:44:19;7.50;;;5.90;;
73168;SDS011;61379;59.732;30.468;2023-05-07T04:46:46;5.82;;;5.22;;
73168;SDS011;61379;59.732;30.468;2023-05-07T04:49:14;6.75;;;5.28;;
73168;SDS011;61379;59.732;30.468;2023-05-07T04:51:40;6.18;;;5.57;;
73168;SDS011;61379;59.732;30.468;2023-05-07T04:54:08;6.32;;;5.82;;
73168;SDS011;61379;59.732;30.468;2023-05-07T04:56:35;7.15;;;6.55;;
73168;SDS011;61379;59.732;30.468;2023-05-07T04:59:02;5.90;;;5.32;;
73168;SDS011;61379;59.732;30.468;2023-05-07T05:01:28;7.40;;;5.85;;
73168;SDS011;61379;59.732;30.468;2023-05-07T05:03:55;5.80;;;5.32;;
73168;SDS011;61379;59.732;30.468;2023-05-07T05:06:23;6.38;;;5.88;;
73168;SDS011;61379;59.732;30.468;2023-05-07T05:08:50;6.18;;;5.78;;
73168;SDS011;61379;59.732;30.468;2023-05-07T05:11:17;5.85;;;5.25;;
73168;SDS011;61379;59.732;30.468;2023-05-07T05:13:44;5.53;;;5.10;;
73168;SDS011;61379;59.732;30.468;2023-05-07T05:16:12;6.45;;;6.03;;
73168;SDS011;61379;59.732;30.468;2023-05-07T05:18:39;6.80;;;6.05;;
73168;SDS011;61379;59.732;30.468;2023-05-07T05:21:06;7.13;;;5.47;;
73168;SDS011;61379;59.732;30.468;2023-05-07T05:23:34;5.97;;;5.47;;
73168;SDS011;61379;59.732;30.468;2023-05-07T05:26:00;7.45;;;5.50;;
73168;SDS011;61379;59.732;30.468;2023-05-07T05:28:27;6.57;;;6.07;;
73168;SDS011;61379;59.732;30.468;2023-05-07T05:30:54;10.63;;;6.25;;
73168;SDS011;61379;59.732;30.468;2023-05-07T05:33:21;7.20;;;5.50;;
73168;SDS011;61379;59.732;30.468;2023-05-07T05:35:47;5.78;;;5.28;;
73168;SDS011;61379;59.732;30.468;2023-05-07T05:38:14;6.97;;;6.30;;
73168;SDS011;61379;59.732;30.468;2023-05-07T05:40:42;6.82;;;6.10;;
73168;SDS011;61379;59.732;30.468;2023-05-07T05:43:09;6.25;;;5.85;;
73168;SDS011;61379;59.732;30.468;2023-05-07T05:45:36;8.60;;;6.25;;
73168;SDS011;61379;59.732;30.468;2023-05-07T05:48:03;6.75;;;6.15;;
73168;SDS011;61379;59.732;30.468;2023-05-07T05:50:29;6.57;;;6.10;;
73168;SDS011;61379;59.732;30.468;2023-05-07T05:52:56;5.93;;;5.53;;
73168;SDS011;61379;59.732;30.468;2023-05-07T05:55:23;6.38;;;5.88;;
73168;SDS011;61379;59.732;30.468;2023-05-07T05:57:51;6.13;;;5.60;;
73168;SDS011;61379;59.732;30.468;2023-05-07T06:00:18;6.05;;;5.45;;
73168;SDS011;61379;59.732;30.468;2023-05-07T06:02:47;5.80;;;5.40;;
73168;SDS011;61379;59.732;30.468;2023-05-07T06:05:14;6.25;;;5.75;;
73168;SDS011;61379;59.732;30.468;2023-05-07T06:07:41;6.13;;;5.57;;
73168;SDS011;61379;59.732;30.468;2023-05-07T06:10:08;5.57;;;5.00;;
73168;SDS011;61379;59.732;30.468;2023-05-07T06:12:35;5.43;;;5.03;;
73168;SDS011;61379;59.732;30.468;2023-05-07T06:15:03;6.38;;;5.88;;
73168;SDS011;61379;59.732;30.468;2023-05-07T06:17:30;6.10;;;5.50;;
73168;SDS011;61379;59.732;30.468;2023-05-07T06:19:57;6.35;;;5.75;;
73168;SDS011;61379;59.732;30.468;2023-05-07T06:22:24;5.88;;;5.38;;
73168;SDS011;61379;59.732;30.468;2023-05-07T06:24:51;5.82;;;5.35;;
73168;SDS011;61379;59.732;30.468;2023-05-07T06:27:17;5.68;;;5.20;;
73168;SDS011;61379;59.732;30.468;2023-05-07T06:29:44;5.50;;;5.10;;
73168;SDS011;61379;59.732;30.468;2023-05-07T06:32:13;5.82;;;5.30;;
73168;SDS011;61379;59.732;30.468;2023-05-07T06:34:40;6.32;;;5.10;;
73168;SDS011;61379;59.732;30.468;2023-05-07T06:37:07;5.70;;;5.13;;
73168;SDS011;61379;59.732;30.468;2023-05-07T06:39:33;5.75;;;5.15;;
73168;SDS011;61379;59.732;30.468;2023-05-07T06:42:00;6.07;;;5.57;;
73168;SDS011;61379;59.732;30.468;2023-05-07T06:44:27;6.70;;;5.93;;
73168;SDS011;61379;59.732;30.468;2023-05-07T06:46:54;11.02;;;7.55;;
73168;SDS011;61379;59.732;30.468;2023-05-07T06:49:22;10.63;;;7.75;;
73168;SDS011;61379;59.732;30.468;2023-05-07T06:51:48;7.05;;;6.15;;
73168;SDS011;61379;59.732;30.468;2023-05-07T06:54:15;10.10;;;7.60;;
73168;SDS011;61379;59.732;30.468;2023-05-07T06:56:42;6.20;;;5.60;;
73168;SDS011;61379;59.732;30.468;2023-05-07T06:59:09;6.25;;;5.75;;
73168;SDS011;61379;59.732;30.468;2023-05-07T07:01:36;6.70;;;6.18;;
73168;SDS011;61379;59.732;30.468;2023-05-07T07:04:03;6.38;;;5.88;;
73168;SDS011;61379;59.732;30.468;2023-05-07T07:06:31;6.35;;;5.75;;
73168;SDS011;61379;59.732;30.468;2023-05-07T07:08:58;6.63;;;5.07;;
73168;SDS011;61379;59.732;30.468;2023-05-07T07:11:25;6.25;;;5.65;;
73168;SDS011;61379;59.732;30.468;2023-05-07T07:13:51;6.28;;;5.72;;
73168;SDS011;61379;59.732;30.468;2023-05-07T07:16:19;5.60;;;5.10;;
73168;SDS011;61379;59.732;30.468;2023-05-07T07:18:46;5.70;;;5.30;;
73168;SDS011;61379;59.732;30.468;2023-05-07T07:21:13;5.50;;;5.10;;
73168;SDS011;61379;59.732;30.468;2023-05-07T07:23:41;5.50;;;5.00;;
73168;SDS011;61379;59.732;30.468;2023-05-07T07:26:08;5.60;;;5.10;;
73168;SDS011;61379;59.732;30.468;2023-05-07T07:28:34;5.50;;;5.05;;
73168;SDS011;61379;59.732;30.468;2023-05-07T07:31:01;6.13;;;5.55;;
73168;SDS011;61379;59.732;30.468;2023-05-07T07:33:28;5.50;;;5.10;;
73168;SDS011;61379;59.732;30.468;2023-05-07T07:35:55;5.80;;;5.28;;
73168;SDS011;61379;59.732;30.468;2023-05-07T07:38:21;5.45;;;5.05;;
73168;SDS011;61379;59.732;30.468;2023-05-07T07:40:50;6.28;;;5.72;;
73168;SDS011;61379;59.732;30.468;2023-05-07T07:43:16;7.10;;;4.97;;
73168;SDS011;61379;59.732;30.468;2023-05-07T07:45:43;5.70;;;5.28;;
73168;SDS011;61379;59.732;30.468;2023-05-07T07:48:11;5.70;;;5.20;;
73168;SDS011;61379;59.732;30.468;2023-05-07T07:50:38;5.80;;;5.30;;
73168;SDS011;61379;59.732;30.468;2023-05-07T07:53:05;5.72;;;4.53;;
73168;SDS011;61379;59.732;30.468;2023-05-07T07:55:31;8.15;;;5.45;;
73168;SDS011;61379;59.732;30.468;2023-05-07T07:57:59;5.43;;;5.03;;
73168;SDS011;61379;59.732;30.468;2023-05-07T08:00:26;5.15;;;4.70;;
73168;SDS011;61379;59.732;30.468;2023-05-07T08:02:53;5.55;;;5.03;;
73168;SDS011;61379;59.732;30.468;2023-05-07T08:05:20;6.55;;;5.30;;
73168;SDS011;61379;59.732;30.468;2023-05-07T08:07:47;5.45;;;4.95;;
73168;SDS011;61379;59.732;30.468;2023-05-07T08:10:17;6.18;;;5.57;;
73168;SDS011;61379;59.732;30.468;2023-05-07T08:12:46;5.78;;;5.22;;
73168;SDS011;61379;59.732;30.468;2023-05-07T08:15:14;5.97;;;5.47;;
73168;SDS011;61379;59.732;30.468;2023-05-07T08:17:41;6.40;;;5.40;;
73168;SDS011;61379;59.732;30.468;2023-05-07T08:20:08;5.72;;;5.32;;
73168;SDS011;61379;59.732;30.468;2023-05-07T08:22:35;6.40;;;5.90;;
73168;SDS011;61379;59.732;30.468;2023-05-07T08:25:02;6.22;;;5.82;;
73168;SDS011;61379;59.732;30.468;2023-05-07T08:27:30;6.35;;;5.65;;
73168;SDS011;61379;59.732;30.468;2023-05-07T08:29:56;6.22;;;5.72;;
73168;SDS011;61379;59.732;30.468;2023-05-07T08:32:25;6.28;;;5.68;;
73168;SDS011;61379;59.732;30.468;2023-05-07T08:34:51;6.30;;;5.90;;
73168;SDS011;61379;59.732;30.468;2023-05-07T08:37:18;6.30;;;5.90;;
73168;SDS011;61379;59.732;30.468;2023-05-07T08:39:45;5.75;;;5.35;;
73168;SDS011;61379;59.732;30.468;2023-05-07T08:42:12;6.50;;;6.00;;
73168;SDS011;61379;59.732;30.468;2023-05-07T08:44:39;5.70;;;5.30;;
73168;SDS011;61379;59.732;30.468;2023-05-07T08:47:06;6.90;;;6.40;;
73168;SDS011;61379;59.732;30.468;2023-05-07T08:49:34;5.53;;;5.13;;
73168;SDS011;61379;59.732;30.468;2023-05-07T08:52:01;5.93;;;5.43;;
73168;SDS011;61379;59.732;30.468;2023-05-07T08:54:28;5.32;;;4.93;;
73168;SDS011;61379;59.732;30.468;2023-05-07T08:56:55;5.57;;;5.18;;
73168;SDS011;61379;59.732;30.468;2023-05-07T08:59:22;6.53;;;5.55;;
73168;SDS011;61379;59.732;30.468;2023-05-07T09:01:49;5.50;;;5.10;;
73168;SDS011;61379;59.732;30.468;2023-05-07T09:04:16;4.85;;;4.45;;
73168;SDS011;61379;59.732;30.468;2023-05-07T09:06:44;6.50;;;4.88;;
73168;SDS011;61379;59.732;30.468;2023-05-07T09:09:14;5.15;;;4.75;;
73168;SDS011;61379;59.732;30.468;2023-05-07T09:11:41;6.38;;;5.70;;
73168;SDS011;61379;59.732;30.468;2023-05-07T09:14:07;5.85;;;5.43;;
73168;SDS011;61379;59.732;30.468;2023-05-07T09:16:34;5.20;;;4.80;;
73168;SDS011;61379;59.732;30.468;2023-05-07T09:19:01;4.70;;;4.40;;
73168;SDS011;61379;59.732;30.468;2023-05-07T09:21:28;5.50;;;5.10;;
73168;SDS011;61379;59.732;30.468;2023-05-07T09:23:56;6.03;;;4.97;;
73168;SDS011;61379;59.732;30.468;2023-05-07T09:26:23;5.80;;;5.30;;
73168;SDS011;61379;59.732;30.468;2023-05-07T09:28:50;5.18;;;4.78;;
73168;SDS011;61379;59.732;30.468;2023-05-07T09:31:17;5.30;;;4.90;;
73168;SDS011;61379;59.732;30.468;2023-05-07T09:33:44;5.18;;;4.78;;
73168;SDS011;61379;59.732;30.468;2023-05-07T09:36:11;5.65;;;5.25;;
73168;SDS011;61379;59.732;30.468;2023-05-07T09:38:38;5.35;;;4.95;;
73168;SDS011;61379;59.732;30.468;2023-05-07T09:41:07;6.10;;;5.50;;
73168;SDS011;61379;59.732;30.468;2023-05-07T09:46:06;5.20;;;4.80;;
73168;SDS011;61379;59.732;30.468;2023-05-07T09:48:35;5.15;;;4.75;;
73168;SDS011;61379;59.732;30.468;2023-05-07T09:51:03;6.07;;;5.47;;
73168;SDS011;61379;59.732;30.468;2023-05-07T09:53:33;5.15;;;4.68;;
73168;SDS011;61379;59.732;30.468;2023-05-07T09:56:00;5.50;;;5.05;;
73168;SDS011;61379;59.732;30.468;2023-05-07T09:58:28;5.70;;;5.30;;
73168;SDS011;61379;59.732;30.468;2023-05-07T10:00:56;6.43;;;5.82;;
73168;SDS011;61379;59.732;30.468;2023-05-07T10:03:23;6.18;;;5.68;;
73168;SDS011;61379;59.732;30.468;2023-05-07T10:05:51;5.22;;;4.82;;
73168;SDS011;61379;59.732;30.468;2023-05-07T10:08:18;5.35;;;4.95;;
73168;SDS011;61379;59.732;30.468;2023-05-07T10:10:45;5.55;;;5.05;;
73168;SDS011;61379;59.732;30.468;2023-05-07T10:13:12;6.07;;;5.57;;
73168;SDS011;61379;59.732;30.468;2023-05-07T10:15:40;6.28;;;5.70;;
73168;SDS011;61379;59.732;30.468;2023-05-07T10:18:07;6.10;;;5.55;;
73168;SDS011;61379;59.732;30.468;2023-05-07T10:20:34;5.60;;;5.00;;
73168;SDS011;61379;59.732;30.468;2023-05-07T10:23:02;6.22;;;5.57;;
73168;SDS011;61379;59.732;30.468;2023-05-07T10:25:31;6.50;;;6.00;;
73168;SDS011;61379;59.732;30.468;2023-05-07T10:27:59;5.68;;;5.28;;
73168;SDS011;61379;59.732;30.468;2023-05-07T10:30:29;22.50;;;15.98;;
73168;SDS011;61379;59.732;30.468;2023-05-07T10:32:59;5.72;;;5.32;;
73168;SDS011;61379;59.732;30.468;2023-05-07T10:35:31;5.97;;;5.57;;
73168;SDS011;61379;59.732;30.468;2023-05-07T10:37:58;6.13;;;5.72;;
73168;SDS011;61379;59.732;30.468;2023-05-07T10:40:25;6.47;;;5.65;;
73168;SDS011;61379;59.732;30.468;2023-05-07T10:42:53;5.75;;;5.35;;
73168;SDS011;61379;59.732;30.468;2023-05-07T10:45:20;5.68;;;5.07;;
73168;SDS011;61379;59.732;30.468;2023-05-07T10:48:07;5.03;;;4.63;;
73168;SDS011;61379;59.732;30.468;2023-05-07T10:50:35;5.68;;;5.15;;
73168;SDS011;61379;59.732;30.468;2023-05-07T10:58:41;5.35;;;4.85;;
73168;SDS011;61379;59.732;30.468;2023-05-07T11:01:07;5.53;;;5.03;;
73168;SDS011;61379;59.732;30.468;2023-05-07T11:03:37;6.03;;;5.63;;
73168;SDS011;61379;59.732;30.468;2023-05-07T11:06:24;6.63;;;5.57;;
73168;SDS011;61379;59.732;30.468;2023-05-07T11:08:52;6.10;;;5.60;;
73168;SDS011;61379;59.732;30.468;2023-05-07T11:11:33;7.00;;;6.43;;
73168;SDS011;61379;59.732;30.468;2023-05-07T11:14:07;6.60;;;6.10;;
73168;SDS011;61379;59.732;30.468;2023-05-07T11:16:33;7.25;;;6.55;;
73168;SDS011;61379;59.732;30.468;2023-05-07T11:19:03;6.32;;;5.82;;
73168;SDS011;61379;59.732;30.468;2023-05-07T11:21:33;6.28;;;5.82;;
73168;SDS011;61379;59.732;30.468;2023-05-07T11:24:01;6.40;;;6.00;;
73168;SDS011;61379;59.732;30.468;2023-05-07T11:26:28;6.55;;;5.95;;
73168;SDS011;61379;59.732;30.468;2023-05-07T11:28:56;6.88;;;6.40;;
73168;SDS011;61379;59.732;30.468;2023-05-07T11:33:52;7.35;;;6.35;;
73168;SDS011;61379;59.732;30.468;2023-05-07T11:36:21;6.75;;;6.25;;
73168;SDS011;61379;59.732;30.468;2023-05-07T11:38:48;6.45;;;5.93;;
73168;SDS011;61379;59.732;30.468;2023-05-07T11:41:15;6.07;;;5.68;;
73168;SDS011;61379;59.732;30.468;2023-05-07T11:46:24;6.43;;;5.93;;
73168;SDS011;61379;59.732;30.468;2023-05-07T11:48:51;7.72;;;6.97;;
73168;SDS011;61379;59.732;30.468;2023-05-07T11:51:22;7.72;;;7.22;;
73168;SDS011;61379;59.732;30.468;2023-05-07T11:53:49;7.25;;;6.57;;
73168;SDS011;61379;59.732;30.468;2023-05-07T11:56:17;7.18;;;6.68;;
73168;SDS011;61379;59.732;30.468;2023-05-07T11:58:44;6.65;;;6.22;;
73168;SDS011;61379;59.732;30.468;2023-05-07T12:01:11;6.85;;;6.32;;
73168;SDS011;61379;59.732;30.468;2023-05-07T12:03:40;6.10;;;5.60;;
73168;SDS011;61379;59.732;30.468;2023-05-07T12:06:07;6.93;;;6.32;;
73168;SDS011;61379;59.732;30.468;2023-05-07T12:08:37;7.07;;;6.57;;
73168;SDS011;61379;59.732;30.468;2023-05-07T12:11:06;8.52;;;6.70;;
73168;SDS011;61379;59.732;30.468;2023-05-07T12:13:33;8.90;;;6.45;;
73168;SDS011;61379;59.732;30.468;2023-05-07T12:16:00;7.50;;;6.90;;
73168;SDS011;61379;59.732;30.468;2023-05-07T12:18:28;6.85;;;6.25;;
73168;SDS011;61379;59.732;30.468;2023-05-07T12:20:55;6.72;;;6.13;;
73168;SDS011;61379;59.732;30.468;2023-05-07T12:23:22;7.43;;;5.95;;
73168;SDS011;61379;59.732;30.468;2023-05-07T12:25:50;7.53;;;6.85;;
73168;SDS011;61379;59.732;30.468;2023-05-07T12:28:17;6.38;;;5.88;;
73168;SDS011;61379;59.732;30.468;2023-05-07T12:30:45;7.38;;;6.78;;
73168;SDS011;61379;59.732;30.468;2023-05-07T12:33:15;6.30;;;5.82;;
73168;SDS011;61379;59.732;30.468;2023-05-07T12:35:42;6.60;;;6.00;;
73168;SDS011;61379;59.732;30.468;2023-05-07T12:38:09;7.15;;;6.60;;
73168;SDS011;61379;59.732;30.468;2023-05-07T12:40:36;6.90;;;6.40;;
73168;SDS011;61379;59.732;30.468;2023-05-07T12:43:05;7.22;;;6.63;;
73168;SDS011;61379;59.732;30.468;2023-05-07T12:45:35;7.65;;;7.15;;
73168;SDS011;61379;59.732;30.468;2023-05-07T12:48:03;7.78;;;6.95;;
73168;SDS011;61379;59.732;30.468;2023-05-07T12:50:31;7.18;;;6.50;;
73168;SDS011;61379;59.732;30.468;2023-05-07T12:52:58;6.70;;;6.07;;
73168;SDS011;61379;59.732;30.468;2023-05-07T12:55:25;7.22;;;6.65;;
73168;SDS011;61379;59.732;30.468;2023-05-07T12:57:52;7.10;;;6.50;;
73168;SDS011;61379;59.732;30.468;2023-05-07T13:00:33;6.88;;;6.32;;
73168;SDS011;61379;59.732;30.468;2023-05-07T13:03:00;6.38;;;5.88;;
73168;SDS011;61379;59.732;30.468;2023-05-07T13:05:27;7.70;;;6.90;;
73168;SDS011;61379;59.732;30.468;2023-05-07T13:07:54;7.00;;;6.60;;
73168;SDS011;61379;59.732;30.468;2023-05-07T13:10:21;7.53;;;6.93;;
73168;SDS011;61379;59.732;30.468;2023-05-07T13:12:48;7.13;;;6.53;;
73168;SDS011;61379;59.732;30.468;2023-05-07T13:15:15;7.35;;;6.13;;
73168;SDS011;61379;59.732;30.468;2023-05-07T13:17:43;8.10;;;7.07;;
73168;SDS011;61379;59.732;30.468;2023-05-07T13:20:10;7.85;;;7.22;;
73168;SDS011;61379;59.732;30.468;2023-05-07T13:22:38;7.43;;;6.82;;
73168;SDS011;61379;59.732;30.468;2023-05-07T13:25:05;7.60;;;7.07;;
73168;SDS011;61379;59.732;30.468;2023-05-07T13:27:32;7.78;;;7.18;;
73168;SDS011;61379;59.732;30.468;2023-05-07T13:30:01;7.22;;;6.72;;
73168;SDS011;61379;59.732;30.468;2023-05-07T13:32:30;7.43;;;6.72;;
73168;SDS011;61379;59.732;30.468;2023-05-07T13:34:59;7.22;;;6.68;;
73168;SDS011;61379;59.732;30.468;2023-05-07T13:37:29;7.30;;;6.80;;
73168;SDS011;61379;59.732;30.468;2023-05-07T13:39:56;7.78;;;7.10;;
73168;SDS011;61379;59.732;30.468;2023-05-07T13:42:23;8.18;;;7.57;;
73168;SDS011;61379;59.732;30.468;2023-05-07T13:44:49;7.78;;;7.18;;
73168;SDS011;61379;59.732;30.468;2023-05-07T13:47:16;7.28;;;6.78;;
73168;SDS011;61379;59.732;30.468;2023-05-07T13:49:43;7.43;;;6.70;;
73168;SDS011;61379;59.732;30.468;2023-05-07T13:52:11;7.38;;;6.75;;
73168;SDS011;61379;59.732;30.468;2023-05-07T13:54:38;6.40;;;5.93;;
73168;SDS011;61379;59.732;30.468;2023-05-07T13:57:05;8.55;;;7.95;;
73168;SDS011;61379;59.732;30.468;2023-05-07T13:59:31;6.35;;;5.85;;
73168;SDS011;61379;59.732;30.468;2023-05-07T14:01:58;6.40;;;5.90;;
73168;SDS011;61379;59.732;30.468;2023-05-07T14:04:25;6.90;;;6.50;;
73168;SDS011;61379;59.732;30.468;2023-05-07T14:06:51;6.25;;;5.85;;
73168;SDS011;61379;59.732;30.468;2023-05-07T14:09:20;6.95;;;6.45;;
73168;SDS011;61379;59.732;30.468;2023-05-07T14:11:46;7.60;;;6.93;;
73168;SDS011;61379;59.732;30.468;2023-05-07T14:14:16;7.38;;;6.82;;
73168;SDS011;61379;59.732;30.468;2023-05-07T14:16:43;7.07;;;6.57;;
73168;SDS011;61379;59.732;30.468;2023-05-07T14:19:10;7.22;;;6.63;;
73168;SDS011;61379;59.732;30.468;2023-05-07T14:21:37;6.43;;;5.82;;
73168;SDS011;61379;59.732;30.468;2023-05-07T14:24:03;6.60;;;6.10;;
73168;SDS011;61379;59.732;30.468;2023-05-07T14:26:32;6.70;;;6.20;;
73168;SDS011;61379;59.732;30.468;2023-05-07T14:28:58;7.47;;;6.68;;
73168;SDS011;61379;59.732;30.468;2023-05-07T14:31:25;9.80;;;6.95;;
73168;SDS011;61379;59.732;30.468;2023-05-07T14:33:52;7.00;;;6.53;;
73168;SDS011;61379;59.732;30.468;2023-05-07T14:36:19;7.47;;;6.90;;
73168;SDS011;61379;59.732;30.468;2023-05-07T14:41:14;6.20;;;5.70;;
73168;SDS011;61379;59.732;30.468;2023-05-07T14:43:42;6.68;;;5.95;;
73168;SDS011;61379;59.732;30.468;2023-05-07T14:46:15;6.32;;;5.72;;
73168;SDS011;61379;59.732;30.468;2023-05-07T14:48:43;7.63;;;6.65;;